Time;durP1;ratioP1;P1;durP2;ratioP2;P2;SDS_P1;SDS_P2;PMS_P1;PMS_P2;Temp;Humidity;BMP_temperature;BMP_pressure;BME280_temperature;BME280_humidity;BME280_pressure;Samples;Min_cycle;Max_cycle;Signal;HPM_P1;HPM_P2
2021/07/28 00:00:38;;;;;;;9.73;4.75;;;;;;;21.72;89.03;100712.61;1697704;84;21519;-87
2021/07/28 00:03:05;;;;;;;5.50;4.28;;;;;;;21.70;88.83;100716.31;1697682;84;21092;-87
2021/07/28 00:05:32;;;;;;;5.17;3.87;;;;;;;21.67;88.67;100711.45;1718446;82;21057;-89
2021/07/28 00:07:58;;;;;;;8.28;3.55;;;;;;;21.64;88.29;100702.43;1708099;84;21073;-89
2021/07/28 00:10:25;;;;;;;6.47;3.72;;;;;;;21.60;87.66;100692.56;1708354;84;21108;-89
2021/07/28 00:12:54;;;;;;;6.83;4.05;;;;;;;21.56;87.05;100697.22;1708231;84;21064;-86
2021/07/28 00:15:21;;;;;;;6.35;3.90;;;;;;;21.51;87.18;100692.45;1739797;82;20993;-87
2021/07/28 00:17:51;;;;;;;7.00;4.17;;;;;;;21.45;87.10;100689.91;1745491;82;21052;-87
2021/07/28 00:23:18;;;;;;;6.87;3.87;;;;;;;21.37;85.60;100689.42;1708216;84;21052;-88
2021/07/28 00:25:50;;;;;;;7.60;3.83;;;;;;;21.36;83.80;100686.97;1708098;84;21073;-89
2021/07/28 00:28:14;;;;;;;5.60;3.67;;;;;;;21.36;82.80;100689.17;1708116;84;21065;-87
2021/07/28 00:30:42;;;;;;;4.70;3.50;;;;;;;21.37;81.90;100673.33;1714936;83;21057;-90
2021/07/28 00:33:08;;;;;;;5.00;2.70;;;;;;;21.37;80.97;100667.18;1735675;81;21059;-89
2021/07/28 00:35:35;;;;;;;5.62;3.00;;;;;;;21.37;79.70;100664.98;1754536;81;20978;-87
2021/07/28 00:38:06;;;;;;;4.67;2.75;;;;;;;21.41;78.90;100666.77;1762224;81;21020;-87
2021/07/28 00:40:33;;;;;;;5.55;3.17;;;;;;;21.43;78.24;100671.37;1731611;82;21657;-88
2021/07/28 00:43:14;;;;;;;5.20;3.12;;;;;;;21.46;77.71;100662.36;1732467;81;21016;-87
2021/07/28 00:45:45;;;;;;;5.47;3.50;;;;;;;21.46;77.46;100662.36;1733963;82;21119;-89
2021/07/28 00:48:13;;;;;;;5.35;3.65;;;;;;;21.47;76.98;100661.19;1762269;81;21029;-88
2021/07/28 00:50:40;;;;;;;5.53;3.05;;;;;;;21.47;76.79;100655.62;1686185;82;21136;-87
2021/07/28 00:53:08;;;;;;;5.00;3.45;;;;;;;21.47;76.76;100657.60;1762202;81;21036;-88
2021/07/28 00:55:35;;;;;;;4.87;3.52;;;;;;;21.48;76.87;100658.63;1732067;82;21080;-89
2021/07/28 00:58:02;;;;;;;4.92;3.37;;;;;;;21.47;76.95;100658.41;1731834;82;21515;-87
2021/07/28 01:00:28;;;;;;;3.95;2.70;;;;;;;21.44;77.20;100652.16;1732000;82;21443;-89
2021/07/28 01:02:55;;;;;;;5.70;3.80;;;;;;;21.40;77.42;100655.39;1731755;82;21060;-89
2021/07/28 01:05:22;;;;;;;5.17;3.22;;;;;;;21.36;77.71;100648.06;1731775;82;21047;-89
2021/07/28 01:07:49;;;;;;;5.80;4.22;;;;;;;21.31;78.08;100646.91;1720313;82;21072;-88
2021/07/28 01:10:16;;;;;;;6.17;3.72;;;;;;;21.27;78.08;100648.19;1727250;82;22178;-88
2021/07/28 01:12:45;;;;;;;5.37;3.95;;;;;;;21.23;78.55;100654.20;1731784;82;21053;-87
2021/07/28 01:15:21;;;;;;;4.90;3.70;;;;;;;21.20;79.83;100654.90;1702749;83;21099;-87
2021/07/28 01:17:41;;;;;;;4.55;3.65;;;;;;;21.14;81.05;100649.33;1725899;82;21068;-90
2021/07/28 01:20:08;;;;;;;7.22;3.62;;;;;;;21.07;82.34;100651.86;1707558;81;21015;-89
2021/07/28 01:22:36;;;;;;;6.80;3.52;;;;;;;20.98;83.51;100645.84;1702724;84;21039;-87
2021/07/28 01:25:03;;;;;;;6.90;4.17;;;;;;;20.89;84.40;100645.70;1699900;84;21106;-87
2021/07/28 01:27:30;;;;;;;5.33;3.75;;;;;;;20.81;84.61;100649.63;1731991;82;21025;-89
2021/07/28 01:29:56;;;;;;;6.35;3.92;;;;;;;20.76;84.26;100649.05;1762308;81;21087;-87
2021/07/28 01:32:24;;;;;;;5.08;3.02;;;;;;;20.73;83.97;100642.20;1720946;82;21096;-90
2021/07/28 01:34:53;;;;;;;4.95;3.27;;;;;;;20.74;83.45;100643.02;1711114;82;21072;-90
2021/07/28 01:37:19;;;;;;;3.87;2.83;;;;;;;20.74;82.91;100641.63;1711054;82;21630;-87
2021/07/28 01:39:46;;;;;;;7.87;4.03;;;;;;;20.78;82.76;100639.80;1711414;83;21034;-88
2021/07/28 01:42:13;;;;;;;10.18;4.22;;;;;;;20.83;82.38;100649.30;1733861;82;21025;-89
2021/07/28 01:44:40;;;;;;;5.37;3.55;;;;;;;20.86;81.96;100647.20;1740866;82;21048;-90
2021/07/28 01:47:07;;;;;;;5.87;3.70;;;;;;;20.90;81.89;100648.15;1740582;82;21052;-88
2021/07/28 01:49:34;;;;;;;4.80;3.35;;;;;;;20.92;82.23;100649.17;1741295;82;21044;-87
2021/07/28 01:52:01;;;;;;;6.28;3.62;;;;;;;20.91;82.88;100648.38;1708975;83;21016;-90
2021/07/28 01:54:28;;;;;;;7.00;3.95;;;;;;;20.89;83.80;100646.51;1753896;81;21043;-87
2021/07/28 01:56:54;;;;;;;6.37;4.22;;;;;;;20.87;84.20;100643.30;1712087;82;21506;-88
2021/07/28 01:59:23;;;;;;;5.37;3.85;;;;;;;20.85;83.92;100646.98;1706909;83;21511;-87
2021/07/28 02:01:49;;;;;;;8.65;3.98;;;;;;;20.86;84.34;100645.02;1728301;82;21084;-87
2021/07/28 02:04:16;;;;;;;6.20;3.72;;;;;;;20.85;85.51;100637.27;1737520;81;21052;-89
2021/07/28 02:06:43;;;;;;;6.40;4.10;;;;;;;20.82;86.35;100643.48;1711821;82;21562;-89
2021/07/28 02:09:10;;;;;;;4.72;3.35;;;;;;;20.79;86.46;100646.95;1723710;83;21056;-89
2021/07/28 02:11:37;;;;;;;7.50;4.03;;;;;;;20.77;87.04;100643.70;1711823;82;21064;-89
2021/07/28 02:14:04;;;;;;;6.47;3.87;;;;;;;20.73;87.71;100644.98;1723692;81;21032;-87
2021/07/28 02:16:30;;;;;;;7.08;4.12;;;;;;;20.71;88.34;100646.48;1712304;82;21045;-89
2021/07/28 02:18:57;;;;;;;4.28;3.40;;;;;;;20.69;88.64;100636.30;1695020;84;21166;-87
2021/07/28 02:21:25;;;;;;;7.25;4.17;;;;;;;20.67;88.75;100644.95;1711778;83;21044;-87
2021/07/28 02:23:52;;;;;;;5.58;3.85;;;;;;;20.67;89.05;100645.54;1714407;83;22287;-87
2021/07/28 02:26:19;;;;;;;6.22;3.80;;;;;;;20.66;89.44;100646.13;1711898;83;21033;-89
2021/07/28 02:28:46;;;;;;;5.33;3.42;;;;;;;20.65;90.61;100640.90;1693241;84;21064;-87
2021/07/28 02:31:13;;;;;;;6.08;3.70;;;;;;;20.61;91.42;100636.04;1711925;82;21570;-87
2021/07/28 02:33:40;;;;;;;7.22;3.55;;;;;;;20.59;92.08;100638.92;1739533;81;21083;-87
2021/07/28 02:36:07;;;;;;;5.87;4.30;;;;;;;20.55;92.72;100631.07;1733543;81;22457;-89
2021/07/28 02:38:34;;;;;;;6.83;3.52;;;;;;;20.49;93.25;100633.19;1764089;81;21199;-89
2021/07/28 02:41:01;;;;;;;7.92;4.20;;;;;;;20.45;93.57;100636.44;1764027;81;21135;-88
2021/07/28 02:43:28;;;;;;;5.90;3.27;;;;;;;20.41;93.68;100635.48;1751075;81;21071;-89
2021/07/28 02:45:57;;;;;;;7.67;4.17;;;;;;;20.38;93.81;100632.02;1731921;82;21048;-87
2021/07/28 02:48:23;;;;;;;6.67;3.83;;;;;;;20.37;94.03;100631.77;1732249;82;21039;-89
2021/07/28 02:50:50;;;;;;;4.60;3.33;;;;;;;20.34;93.86;100629.09;1745787;81;21024;-87
2021/07/28 02:53:20;;;;;;;10.70;3.67;;;;;;;20.34;93.69;100628.29;1755366;81;21087;-89
2021/07/28 02:55:45;;;;;;;6.92;4.28;;;;;;;20.32;93.30;100623.07;1762240;81;21518;-89
2021/07/28 02:58:14;;;;;;;8.83;4.15;;;;;;;20.36;94.00;100623.22;1760052;81;21050;-90
2021/07/28 03:00:40;;;;;;;7.22;3.95;;;;;;;20.36;94.00;100623.22;1735180;81;21647;-90
2021/07/28 03:03:08;;;;;;;9.35;3.92;;;;;;;20.37;94.21;100619.28;1731182;82;21679;-87
2021/07/28 03:05:35;;;;;;;8.00;4.72;;;;;;;20.37;94.52;100609.56;1732569;81;21024;-90
2021/07/28 03:08:02;;;;;;;6.58;3.67;;;;;;;20.38;94.84;100620.92;1737967;81;21027;-88
2021/07/28 03:10:29;;;;;;;6.90;3.80;;;;;;;20.40;95.25;100619.42;1732035;82;21554;-89
2021/07/28 03:12:55;;;;;;;4.62;3.60;;;;;;;20.41;95.66;100621.61;1731965;82;21522;-87
2021/07/28 03:15:22;;;;;;;6.25;4.10;;;;;;;20.39;95.99;100623.33;1744916;81;20997;-87
2021/07/28 03:17:49;;;;;;;5.25;3.60;;;;;;;20.36;96.64;100628.77;1761816;81;21079;-89
2021/07/28 03:20:16;;;;;;;6.83;4.12;;;;;;;20.31;97.17;100633.14;1762253;81;21017;-87
2021/07/28 03:22:43;;;;;;;8.03;4.80;;;;;;;20.29;97.65;100657.64;1704729;82;21043;-87
2021/07/28 03:25:10;;;;;;;6.03;4.17;;;;;;;20.27;96.90;100671.03;1752060;81;21042;-89
2021/07/28 03:27:37;;;;;;;6.37;4.33;;;;;;;20.28;95.60;100671.29;1704841;81;21071;-90
2021/07/28 03:30:05;;;;;;;7.45;4.10;;;;;;;20.33;94.55;100679.41;1701454;82;21071;-87
2021/07/28 03:32:32;;;;;;;5.08;3.90;;;;;;;20.36;93.80;100670.39;1721950;82;21505;-89
2021/07/28 03:34:59;;;;;;;5.87;4.00;;;;;;;20.41;92.93;100678.51;1731856;81;21515;-88
2021/07/28 03:37:26;;;;;;;6.92;4.17;;;;;;;20.47;92.45;100667.41;1701347;82;21038;-87
2021/07/28 03:40:02;;;;;;;7.70;4.10;;;;;;;20.50;91.92;100663.14;1706699;82;21138;-87
2021/07/28 03:42:30;;;;;;;8.20;4.87;;;;;;;20.56;91.97;100666.80;1762288;81;21036;-89
2021/07/28 03:44:58;;;;;;;6.17;3.72;;;;;;;20.60;92.70;100664.97;1730795;81;21499;-90
2021/07/28 03:47:25;;;;;;;7.87;4.00;;;;;;;20.65;92.31;100658.39;1704841;82;21492;-89
2021/07/28 03:49:52;;;;;;;7.00;4.15;;;;;;;20.72;92.21;100649.48;1702801;84;21438;-88
2021/07/28 03:52:19;;;;;;;7.28;4.15;;;;;;;20.80;92.33;100647.20;1712252;82;21130;-87
2021/07/28 03:54:45;;;;;;;7.37;4.15;;;;;;;20.88;92.27;100646.30;1730663;82;21047;-90
2021/07/28 03:57:12;;;;;;;9.93;4.58;;;;;;;20.97;92.27;100642.84;1727227;82;21503;-87
2021/07/28 03:59:39;;;;;;;7.42;3.87;;;;;;;21.06;91.80;100641.33;1731567;82;21051;-89
2021/07/28 04:02:06;;;;;;;8.00;3.67;;;;;;;21.17;92.00;100637.54;1702724;82;21088;-89
2021/07/28 04:04:33;;;;;;;8.10;4.62;;;;;;;21.25;92.25;100631.05;1729817;82;21138;-88
2021/07/28 04:07:00;;;;;;;5.85;4.05;;;;;;;21.31;92.36;100626.86;1729687;82;21028;-90
2021/07/28 04:09:27;;;;;;;7.75;4.58;;;;;;;21.35;91.27;100622.24;1705211;82;21012;-87
2021/07/28 04:11:54;;;;;;;10.85;4.65;;;;;;;21.39;90.24;100620.43;1704310;82;21060;-89
2021/07/28 04:14:20;;;;;;;6.00;4.15;;;;;;;21.42;89.78;100633.63;1702990;84;21518;-87
2021/07/28 04:16:47;;;;;;;6.35;4.35;;;;;;;21.44;89.96;100630.50;1721608;82;21542;-89
2021/07/28 04:19:14;;;;;;;9.10;4.10;;;;;;;21.43;90.45;100629.67;1732670;81;21051;-89
2021/07/28 04:21:40;;;;;;;7.05;3.90;;;;;;;21.41;90.44;100636.19;1726103;82;21072;-90
2021/07/28 04:24:08;;;;;;;6.95;3.98;;;;;;;21.40;90.53;100634.55;1729992;81;21072;-89
2021/07/28 04:26:35;;;;;;;5.80;4.30;;;;;;;21.42;90.91;100631.42;1703100;82;21066;-90
2021/07/28 04:29:01;;;;;;;7.08;4.08;;;;;;;21.43;92.10;100624.11;1698212;83;21089;-89
2021/07/28 04:31:28;;;;;;;9.98;4.47;;;;;;;21.44;93.35;100629.92;1728750;82;21080;-87
2021/07/28 04:33:55;;;;;;;5.40;3.83;;;;;;;21.44;93.81;100625.75;1761072;81;21055;-89
2021/07/28 04:36:22;;;;;;;9.18;5.25;;;;;;;21.43;94.30;100626.89;1734448;82;21047;-88
2021/07/28 04:38:48;;;;;;;5.90;4.67;;;;;;;21.43;94.45;100622.72;1762087;81;21076;-88
2021/07/28 04:41:15;;;;;;;7.37;4.55;;;;;;;21.43;93.34;100602.46;1746206;81;21043;-87
2021/07/28 04:43:42;;;;;;;7.75;5.12;;;;;;;21.45;93.58;100596.78;1702769;82;21051;-87
2021/07/28 04:46:09;;;;;;;8.20;4.58;;;;;;;21.45;93.22;100594.00;1735984;81;21052;-88
2021/07/28 04:48:36;;;;;;;8.00;4.85;;;;;;;21.44;92.60;100595.17;1743928;81;21061;-89
2021/07/28 04:51:03;;;;;;;6.10;4.33;;;;;;;21.44;91.61;100591.59;1730926;82;21218;-87
2021/07/28 04:53:30;;;;;;;6.65;4.42;;;;;;;21.46;90.97;100592.02;1731410;82;21127;-88
2021/07/28 04:55:58;;;;;;;8.10;4.65;;;;;;;21.50;91.34;100581.03;1762347;81;21061;-89
2021/07/28 04:58:25;;;;;;;7.85;4.67;;;;;;;21.53;91.72;100571.40;1739564;81;21105;-89
2021/07/28 05:00:51;;;;;;;8.78;5.58;;;;;;;21.59;92.19;100570.59;1727041;82;21083;-87
2021/07/28 05:03:18;;;;;;;9.03;5.25;;;;;;;21.60;92.52;100561.88;1750470;81;20982;-89
2021/07/28 05:05:45;;;;;;;8.03;5.47;;;;;;;21.63;92.96;100548.66;1759144;81;21040;-90
2021/07/28 05:08:13;;;;;;;6.00;4.15;;;;;;;21.69;93.21;100539.52;1732974;81;21040;-90
2021/07/28 05:10:40;;;;;;;7.37;4.33;;;;;;;21.75;93.77;100531.14;1715821;82;21534;-90
2021/07/28 05:13:06;;;;;;;8.30;5.35;;;;;;;21.82;93.76;100523.59;1705881;82;21482;-90
2021/07/28 05:15:33;;;;;;;10.53;5.17;;;;;;;21.94;93.61;100524.13;1720170;82;20959;-87
2021/07/28 05:18:00;;;;;;;8.70;5.00;;;;;;;22.07;93.47;100529.84;1717923;82;21075;-87
2021/07/28 05:20:26;;;;;;;6.58;4.50;;;;;;;22.24;91.95;100542.67;1736502;81;21052;-88
2021/07/28 05:22:53;;;;;;;6.72;4.35;;;;;;;22.44;90.65;100551.95;1747035;81;21462;-89
2021/07/28 05:25:20;;;;;;;7.92;4.47;;;;;;;22.63;90.12;100552.05;1748461;81;20989;-88
2021/07/28 05:27:47;;;;;;;8.30;4.83;;;;;;;22.84;89.26;100534.25;1755124;80;21521;-87
2021/07/28 05:30:14;;;;;;;8.50;4.55;;;;;;;23.02;88.79;100527.18;1728880;82;21100;-89
2021/07/28 05:32:41;;;;;;;7.17;4.45;;;;;;;23.16;87.63;100519.13;1712207;82;21080;-88
2021/07/28 05:35:09;;;;;;;6.03;3.72;;;;;;;23.31;86.47;100516.67;1738217;81;21535;-89
2021/07/28 05:37:35;;;;;;;8.50;4.72;;;;;;;23.40;85.49;100506.13;1749663;81;21071;-86
2021/07/28 05:40:03;;;;;;;8.55;5.47;;;;;;;23.49;85.23;100498.92;1730456;81;21113;-85
2021/07/28 05:42:31;;;;;;;7.37;4.35;;;;;;;23.55;84.73;100496.09;1730499;82;21529;-89
2021/07/28 05:44:57;;;;;;;6.80;4.30;;;;;;;23.63;83.30;100495.05;1731624;82;21066;-87
2021/07/28 05:47:24;;;;;;;9.43;5.00;;;;;;;23.74;82.68;100493.92;1732090;82;21107;-89
2021/07/28 05:49:51;;;;;;;6.22;4.50;;;;;;;23.85;82.64;100493.53;1702820;82;21690;-89
2021/07/28 05:52:18;;;;;;;9.63;4.50;;;;;;;23.98;82.66;100492.19;1729111;82;21629;-87
2021/07/28 05:54:45;;;;;;;6.22;4.25;;;;;;;24.12;82.41;100499.23;1731651;82;21067;-90
2021/07/28 05:57:13;;;;;;;7.70;4.83;;;;;;;24.24;81.60;100522.78;1733974;81;21059;-90
2021/07/28 05:59:39;;;;;;;7.65;5.12;;;;;;;24.34;81.14;100539.52;1756774;81;21095;-89
2021/07/28 06:02:06;;;;;;;8.63;4.55;;;;;;;24.39;80.41;100551.19;1731780;82;21071;-88
2021/07/28 06:04:33;;;;;;;8.15;4.87;;;;;;;24.39;79.96;100545.60;1735078;81;21040;-88
2021/07/28 06:06:59;;;;;;;5.62;4.12;;;;;;;24.40;80.12;100547.20;1721087;81;21051;-87
2021/07/28 06:09:27;;;;;;;7.97;5.10;;;;;;;24.35;79.61;100562.87;1726533;81;21049;-87
2021/07/28 06:11:54;;;;;;;7.37;4.58;;;;;;;24.28;79.29;100575.30;1721156;82;21047;-87
2021/07/28 06:14:21;;;;;;;7.70;4.50;;;;;;;24.14;79.38;100619.70;1742900;81;21127;-88
2021/07/28 06:16:48;;;;;;;6.00;4.42;;;;;;;24.00;80.58;100678.22;1728296;82;21123;-87
2021/07/28 06:19:14;;;;;;;10.50;5.33;;;;;;;23.75;81.19;100690.81;1720459;82;21057;-91
2021/07/28 06:21:43;;;;;;;8.05;5.00;;;;;;;23.51;82.60;100668.89;1731640;82;21036;-87
2021/07/28 06:24:09;;;;;;;9.10;5.85;;;;;;;23.32;84.88;100671.64;1708638;82;21135;-88
2021/07/28 06:26:36;;;;;;;7.45;5.22;;;;;;;23.05;86.09;100690.87;1762393;81;21052;-87
2021/07/28 06:29:03;;;;;;;10.35;5.20;;;;;;;22.74;87.75;100697.97;1725562;82;20969;-90
2021/07/28 06:31:30;;;;;;;9.00;5.42;;;;;;;22.43;89.22;100690.94;1701007;83;21027;-90
2021/07/28 06:33:57;;;;;;;13.30;5.95;;;;;;;22.16;90.89;100707.80;1711025;83;21116;-91
2021/07/28 06:36:24;;;;;;;7.72;5.17;;;;;;;21.92;92.56;100730.91;1725080;82;21039;-90
2021/07/28 06:38:51;;;;;;;10.38;5.40;;;;;;;21.67;94.00;100710.07;1693809;82;21138;-91
2021/07/28 06:41:18;;;;;;;9.15;5.00;;;;;;;21.51;95.68;100721.64;1707256;82;21108;-92
2021/07/28 06:43:45;;;;;;;9.65;5.53;;;;;;;21.39;97.04;100749.68;1715255;82;21052;-91
2021/07/28 06:46:12;;;;;;;7.65;5.00;;;;;;;21.30;98.88;100826.75;1719194;82;21758;-91
2021/07/28 06:48:39;;;;;;;6.28;4.78;;;;;;;21.07;100.00;100801.88;1731128;82;21073;-89
2021/07/28 06:51:06;;;;;;;5.62;4.00;;;;;;;20.75;100.00;100795.99;1732043;82;21080;-90
2021/07/28 06:53:33;;;;;;;5.67;3.35;;;;;;;20.44;100.00;100778.31;1732927;82;22177;-88
2021/07/28 06:56:00;;;;;;;3.72;3.12;;;;;;;20.18;100.00;100745.45;1685930;84;21116;-88
2021/07/28 06:58:27;;;;;;;7.75;3.65;;;;;;;20.05;100.00;100740.95;1725883;82;21007;-88
2021/07/28 07:00:58;;;;;;;9.20;3.60;;;;;;;19.97;100.00;100737.67;1742042;82;21089;-89
2021/07/28 07:03:24;;;;;;;6.15;3.30;;;;;;;19.91;100.00;100697.42;1742012;82;21013;-89
2021/07/28 07:05:51;;;;;;;4.17;2.70;;;;;;;19.85;100.00;100658.55;1736935;81;21104;-88
2021/07/28 07:08:17;;;;;;;4.97;2.50;;;;;;;19.79;100.00;100643.28;1711660;82;21527;-88
2021/07/28 07:10:44;;;;;;;5.20;2.85;;;;;;;19.72;100.00;100641.03;1701967;83;21036;-88
2021/07/28 07:13:11;;;;;;;3.62;2.08;;;;;;;19.63;100.00;100678.47;1709548;82;21066;-88
2021/07/28 07:15:38;;;;;;;5.20;1.95;;;;;;;19.61;100.00;100671.08;1713622;82;21106;-87
2021/07/28 07:18:05;;;;;;;3.22;2.22;;;;;;;19.58;100.00;100644.02;1691442;82;21084;-88
2021/07/28 07:20:32;;;;;;;3.15;2.08;;;;;;;19.55;100.00;100633.02;1742031;82;21123;-89
2021/07/28 07:22:59;;;;;;;4.03;2.12;;;;;;;19.56;100.00;100632.47;1722452;82;21064;-88
2021/07/28 07:25:25;;;;;;;4.03;2.02;;;;;;;19.55;100.00;100617.78;1724280;82;21072;-88
2021/07/28 07:27:53;;;;;;;2.42;1.82;;;;;;;19.55;100.00;100605.31;1734801;82;21365;-88
2021/07/28 07:30:22;;;;;;;4.10;2.25;;;;;;;19.56;100.00;100577.05;1709301;82;21088;-87
2021/07/28 07:35:29;;;;;;;3.37;2.27;;;;;;;19.62;100.00;100581.22;1700761;81;21048;-88
2021/07/28 07:37:56;;;;;;;3.02;2.02;;;;;;;19.62;100.00;100581.22;1742711;81;21114;-88
2021/07/28 07:40:23;;;;;;;5.92;3.40;;;;;;;19.63;100.00;100577.29;1748781;81;21040;-88
2021/07/28 07:42:50;;;;;;;7.03;4.00;;;;;;;19.66;100.00;100578.02;1741626;81;21130;-88
2021/07/28 07:45:17;;;;;;;5.12;3.08;;;;;;;19.70;100.00;100581.75;1740902;81;21032;-88
2021/07/28 07:47:44;;;;;;;4.83;2.83;;;;;;;19.75;100.00;100573.81;1759337;81;21048;-86
2021/07/28 07:50:11;;;;;;;5.92;2.70;;;;;;;19.81;100.00;100578.60;1748002;81;21050;-87
2021/07/28 07:52:38;;;;;;;5.40;3.40;;;;;;;19.98;100.00;100581.23;1705103;82;21094;-87
2021/07/28 07:55:06;;;;;;;6.65;3.30;;;;;;;19.98;100.00;100581.23;1729541;82;21028;-87
2021/07/28 07:57:33;;;;;;;6.33;3.70;;;;;;;20.26;100.00;100568.16;1715467;82;21570;-85
2021/07/28 08:00:00;;;;;;;8.28;3.58;;;;;;;20.26;100.00;100568.16;1728845;82;22292;-85
2021/07/28 08:02:27;;;;;;;6.03;3.70;;;;;;;20.39;100.00;100568.41;1757074;81;21050;-85
2021/07/28 08:04:55;;;;;;;7.75;3.80;;;;;;;20.55;100.00;100558.89;1761027;81;21055;-85
2021/07/28 08:07:21;;;;;;;5.85;2.65;;;;;;;20.74;100.00;100554.97;1724228;82;22039;-86
2021/07/28 08:09:48;;;;;;;5.62;2.90;;;;;;;20.89;100.00;100558.22;1731075;82;21078;-86
2021/07/28 08:12:15;;;;;;;4.37;2.83;;;;;;;21.05;100.00;100555.80;1723748;82;21479;-87
2021/07/28 08:14:42;;;;;;;4.42;2.67;;;;;;;21.19;100.00;100560.17;1742606;81;21520;-87
2021/07/28 08:17:09;;;;;;;3.98;3.15;;;;;;;21.42;100.00;100561.35;1730315;82;21068;-86
2021/07/28 08:19:36;;;;;;;6.28;3.02;;;;;;;21.61;100.00;100569.08;1712600;82;21062;-86
2021/07/28 08:22:03;;;;;;;5.12;3.12;;;;;;;21.79;100.00;100568.22;1720000;81;21629;-86
2021/07/28 08:24:33;;;;;;;6.37;3.72;;;;;;;22.01;100.00;100573.02;1711772;82;21461;-86
2021/07/28 08:26:59;;;;;;;8.38;3.95;;;;;;;22.24;100.00;100571.30;1687556;82;21060;-86
2021/07/28 08:29:25;;;;;;;6.12;3.35;;;;;;;22.48;100.00;100574.55;1704147;82;22049;-88
2021/07/28 08:31:52;;;;;;;4.22;3.12;;;;;;;22.67;100.00;100568.84;1710875;83;21108;-88
2021/07/28 08:34:19;;;;;;;5.30;3.30;;;;;;;22.83;100.00;100568.27;1728574;82;21060;-87
2021/07/28 08:36:46;;;;;;;5.05;3.80;;;;;;;23.00;100.00;100569.92;1717545;83;21109;-86
2021/07/28 08:39:13;;;;;;;6.28;3.37;;;;;;;23.20;100.00;100571.39;1746016;81;21048;-88
2021/07/28 08:41:42;;;;;;;4.28;3.45;;;;;;;23.41;100.00;100570.47;1733346;82;21167;-87
2021/07/28 08:44:09;;;;;;;4.15;3.37;;;;;;;23.70;100.00;100568.31;1685512;84;21475;-87
2021/07/28 08:46:36;;;;;;;6.12;3.72;;;;;;;23.96;100.00;100575.48;1709184;82;21044;-86
2021/07/28 08:49:03;;;;;;;5.25;3.72;;;;;;;24.09;100.00;100576.73;1687181;84;21069;-87
2021/07/28 08:51:31;;;;;;;5.28;3.35;;;;;;;24.24;100.00;100574.44;1708292;82;21096;-87
2021/07/28 08:53:58;;;;;;;5.10;3.15;;;;;;;24.40;100.00;100579.31;1708043;84;21148;-88
2021/07/28 08:56:25;;;;;;;4.45;3.58;;;;;;;24.58;100.00;100580.27;1709951;82;21052;-89
2021/07/28 08:58:52;;;;;;;6.15;3.77;;;;;;;24.74;100.00;100569.78;1727474;81;21061;-87
2021/07/28 09:01:19;;;;;;;6.80;3.10;;;;;;;25.00;100.00;100583.01;1713183;83;21085;-87
2021/07/28 09:03:46;;;;;;;3.75;3.37;;;;;;;25.28;100.00;100574.28;1735265;82;21079;-90
2021/07/28 09:06:27;;;;;;;4.00;3.30;;;;;;;25.55;100.00;100573.47;1729432;82;21092;-89
2021/07/28 09:08:59;;;;;;;4.17;3.27;;;;;;;25.71;100.00;100566.48;1736812;82;21045;-89
2021/07/28 09:11:26;;;;;;;4.80;3.50;;;;;;;25.78;100.00;100573.38;1737821;82;21075;-88
2021/07/28 09:13:57;;;;;;;5.90;3.65;;;;;;;25.89;100.00;100570.13;1731395;82;21084;-89
2021/07/28 09:16:25;;;;;;;4.03;3.42;;;;;;;26.03;98.56;100574.51;1728645;82;21011;-87
2021/07/28 09:18:52;;;;;;;4.47;3.30;;;;;;;26.12;97.53;100570.02;1685224;82;21621;-87
2021/07/28 09:21:27;;;;;;;5.53;3.47;;;;;;;26.30;96.69;100573.02;1737669;82;21085;-90
2021/07/28 09:26:39;;;;;;;4.65;3.40;;;;;;;26.90;100.00;100554.58;1714791;82;21100;-90
2021/07/28 09:29:17;;;;;;;5.90;3.50;;;;;;;27.29;98.03;100555.50;1708370;84;21331;-89
2021/07/28 09:32:06;;;;;;;5.12;3.47;;;;;;;27.52;96.16;100554.42;1724775;83;21140;-87
2021/07/28 09:34:37;;;;;;;5.58;3.52;;;;;;;27.71;93.50;100552.72;1698027;83;21614;-88
2021/07/28 09:37:10;;;;;;;4.90;3.40;;;;;;;27.92;94.14;100551.22;1700129;83;23856;-89
2021/07/28 09:39:43;;;;;;;4.25;2.98;;;;;;;28.14;92.68;100548.71;1669413;84;21052;-88
2021/07/28 09:42:17;;;;;;;4.42;2.87;;;;;;;28.34;90.00;100553.95;1670572;84;21049;-87
2021/07/28 09:44:46;;;;;;;4.85;3.33;;;;;;;28.53;89.32;100549.39;1676452;83;21057;-89
2021/07/28 09:47:25;;;;;;;5.83;3.33;;;;;;;28.73;87.38;100541.38;1726819;83;21058;-87
2021/07/28 09:50:08;;;;;;;3.87;3.20;;;;;;;28.88;84.12;100543.58;1727221;83;21076;-88
2021/07/28 09:52:36;;;;;;;4.50;3.50;;;;;;;28.97;83.45;100544.59;1709754;83;21101;-88
2021/07/28 09:55:29;;;;;;;4.55;3.02;;;;;;;29.08;82.50;100535.55;1720960;83;21045;-89
2021/07/28 09:57:58;;;;;;;4.78;3.47;;;;;;;29.08;81.54;100537.78;1726672;83;21041;-89
2021/07/28 10:00:28;;;;;;;6.72;3.50;;;;;;;28.98;81.17;100537.17;1711637;83;21117;-88
2021/07/28 10:03:00;;;;;;;4.25;3.30;;;;;;;28.85;81.82;100533.94;1720330;83;21037;-89
2021/07/28 10:05:26;;;;;;;4.03;3.22;;;;;;;28.80;82.94;100539.17;1723068;83;21173;-91
2021/07/28 10:07:54;;;;;;;4.80;3.22;;;;;;;28.86;82.88;100540.39;1697499;84;20974;-91
2021/07/28 10:10:21;;;;;;;4.22;2.90;;;;;;;28.94;82.59;100534.95;1698021;84;21092;-88
2021/07/28 10:12:48;;;;;;;4.15;3.10;;;;;;;28.95;79.59;100533.13;1703866;83;21049;-88
2021/07/28 10:15:15;;;;;;;4.47;3.00;;;;;;;28.99;80.89;100527.52;1727284;83;21045;-88
2021/07/28 10:17:43;;;;;;;3.92;3.52;;;;;;;29.11;79.72;100529.94;1694164;84;21052;-89
2021/07/28 10:20:14;;;;;;;5.62;3.37;;;;;;;29.28;79.27;100519.86;1719592;83;21060;-91
2021/07/28 10:22:43;;;;;;;3.10;2.80;;;;;;;29.46;78.24;100525.42;1731781;82;21044;-88
2021/07/28 10:25:15;;;;;;;4.85;3.55;;;;;;;29.64;77.84;100528.78;1717911;82;21060;-89
2021/07/28 10:27:50;;;;;;;4.78;3.37;;;;;;;29.69;77.52;100529.19;1709688;82;21064;-89
2021/07/28 10:30:21;;;;;;;6.10;4.10;;;;;;;29.78;78.48;100532.37;1728088;82;21056;-89
2021/07/28 10:32:47;;;;;;;3.52;2.90;;;;;;;29.92;78.34;100530.11;1707952;82;21076;-89
2021/07/28 10:35:22;;;;;;;7.35;3.60;;;;;;;30.10;75.50;100524.37;1710390;82;21116;-88
2021/07/28 10:37:54;;;;;;;5.33;3.52;;;;;;;30.10;74.29;100527.19;1709691;82;21084;-88
2021/07/28 10:40:31;;;;;;;5.05;3.45;;;;;;;30.18;74.69;100523.71;1656624;84;21578;-88
2021/07/28 10:43:01;;;;;;;4.47;3.52;;;;;;;30.30;72.86;100520.44;1710742;82;21072;-89
2021/07/28 10:45:31;;;;;;;4.85;3.62;;;;;;;30.34;72.35;100522.64;1751355;81;21475;-88
2021/07/28 10:47:58;;;;;;;4.43;3.23;;;;;;;30.47;72.63;100520.74;1672193;84;21088;-89
2021/07/28 10:50:36;;;;;;;6.08;3.55;;;;;;;30.62;73.17;100503.90;1709409;84;21060;-88
2021/07/28 10:53:02;;;;;;;5.72;3.35;;;;;;;30.80;72.77;100511.58;1708139;83;21065;-88
2021/07/28 10:55:36;;;;;;;6.20;3.83;;;;;;;30.89;70.26;100501.27;1684866;84;21121;-89
2021/07/28 10:58:11;;;;;;;5.67;3.42;;;;;;;30.98;70.07;100505.79;1713495;82;21092;-88
2021/07/28 11:00:48;;;;;;;4.78;3.83;;;;;;;31.01;69.77;100497.09;1711192;82;21155;-89
2021/07/28 11:03:18;;;;;;;5.17;3.02;;;;;;;31.15;69.95;100498.98;1738755;82;21107;-89
2021/07/28 11:05:48;;;;;;;8.75;3.55;;;;;;;31.16;67.63;100499.98;1736325;82;21088;-89
2021/07/28 11:08:22;;;;;;;4.62;3.33;;;;;;;31.06;68.00;100498.08;1708132;84;21076;-90
2021/07/28 11:10:53;;;;;;;4.05;3.15;;;;;;;31.07;68.54;100494.03;1708711;82;21096;-89
2021/07/28 11:13:23;;;;;;;4.65;3.27;;;;;;;31.07;68.66;100496.84;1708812;84;21079;-89
2021/07/28 11:15:53;;;;;;;3.47;3.02;;;;;;;31.10;68.59;100494.59;1709907;82;21068;-91
2021/07/28 11:18:44;;;;;;;5.90;4.10;;;;;;;31.17;68.46;100492.31;1730430;82;21040;-91
2021/07/28 11:21:27;;;;;;;6.33;4.40;;;;;;;31.25;68.31;100485.36;1730414;82;21040;-89
2021/07/28 11:24:06;;;;;;;4.22;3.62;;;;;;;31.42;67.73;100479.35;1738040;82;21091;-89
2021/07/28 11:26:38;;;;;;;6.12;4.10;;;;;;;31.61;66.37;100477.30;1716639;82;21057;-91
2021/07/28 11:29:17;;;;;;;5.47;4.00;;;;;;;31.85;66.18;100478.78;1710051;82;20995;-90
2021/07/28 11:31:46;;;;;;;5.62;4.22;;;;;;;31.87;64.23;100476.33;1732084;82;21100;-90
2021/07/28 11:34:19;;;;;;;6.10;3.60;;;;;;;31.80;63.29;100473.60;1714383;82;21788;-90
2021/07/28 11:36:59;;;;;;;5.00;3.77;;;;;;;31.77;63.60;100477.28;1724980;82;21323;-89